Black River (Missouri), Williamsville (07062575)

StateMissouriLatestGood (2200 cfs)
RiverBlack RiverRatingObservedEstimated
Updated2020-02-25 14:30 (39 minutes ago)Flood - The river is flooding. Obstacles can be treacherous or deadly. The river should be avoided at this stage for casual trips and definitely for the inexperienced. Trips should be attempted only with protective gear and equipment.Flood(none)4990
Discharge2200 cfs (median: 1070 cfs)High - The river is high and potentially dangerous, especially for the young and / or inexperienced. Normal stream obstacles are sometimes difficult to navigate. Extended distances can be attempted, but canoe travel may not be advisable.High(none)2640
Height5.94 feetGood - Conditions are ideal for a canoe or kayak. Boats typically will drag on fewer than one-quarter of riffles, if at all, and portages are unnecessary or rare. Normal float lengths can be attempted without a problem.Good(none)1928
TrendRising (rising over 24 hours)Low - River is low but can still be floated. Some riffles are okay but most come with significant dragging and might need a portage. Float lengths should be reduced to accommodate low flow, dragging, and portages.Low(none)641
USGSExternal icon USGS Site (External icon Google Maps)Poor - River is too low to float comfortably. Most or all riffles will drag or must be portaged and some obstacles (such as slick shelf rock) cause undue problems. Avoid the river at this stage for casual paddling trips.Poor(none)289

Trending Data

Plot Image

Trips for Black River (Missouri), Williamsville (07062575)

DateStartEndDistanceConditionDischargeHeightFishingDetails

A total of 0 rows are displayed.

Condition Descriptions

Fishing Conditions

Fish Species

Notes

Classic Trip List

The classic River Trips application is still available for use. It is updated with the new system using a data retrofit. It is no longer maintained. The original River Trips application is no longer updated (as of 1 Dec 2016) but can be checked for errors or for the condition of the data before it was converted to the new system.

Gauge Data Table

ObservationHeightDischargeMaximum
Discharge
Minimum
Discharge
Mean
Discharge
P05P10P20P25P50
(Median)
P75P80P90P95
2020-02-25 14:30 5.94 2200 3600 (2019) 495 (2017) 1390 517 629 661 1070 1600 2540 3510
2020-02-25 13:30 5.93 2190 3600 (2019) 495 (2017) 1390 517 629 661 1070 1600 2540 3510
2020-02-25 12:30 5.92 2180 3600 (2019) 495 (2017) 1390 517 629 661 1070 1600 2540 3510
2020-02-25 11:30 5.93 2190 3600 (2019) 495 (2017) 1390 517 629 661 1070 1600 2540 3510
2020-02-25 10:30 5.95 2210 3600 (2019) 495 (2017) 1390 517 629 661 1070 1600 2540 3510
2020-02-25 09:30 5.96 2210 3600 (2019) 495 (2017) 1390 517 629 661 1070 1600 2540 3510
2020-02-25 08:30 5.97 2220 3600 (2019) 495 (2017) 1390 517 629 661 1070 1600 2540 3510
2020-02-25 07:30 5.96 2210 3600 (2019) 495 (2017) 1390 517 629 661 1070 1600 2540 3510
2020-02-25 06:30 5.95 2210 3600 (2019) 495 (2017) 1390 517 629 661 1070 1600 2540 3510
2020-02-25 05:30 5.93 2190 3600 (2019) 495 (2017) 1390 517 629 661 1070 1600 2540 3510
2020-02-25 04:30 5.88 2150 3600 (2019) 495 (2017) 1390 517 629 661 1070 1600 2540 3510
2020-02-25 03:30 5.80 2080 3600 (2019) 495 (2017) 1390 517 629 661 1070 1600 2540 3510
2020-02-25 02:30 5.75 2040 3600 (2019) 495 (2017) 1390 517 629 661 1070 1600 2540 3510
2020-02-25 01:30 5.73 2030 3600 (2019) 495 (2017) 1390 517 629 661 1070 1600 2540 3510
2020-02-25 00:30 5.70 2000 3600 (2019) 495 (2017) 1390 517 629 661 1070 1600 2540 3510
2020-02-24 23:30 5.66 1970 3630 (2019) 553 (2011) 1310 564 617 634 1080 1550 1870 3320
2020-02-24 22:30 5.62 1940 3630 (2019) 553 (2011) 1310 564 617 634 1080 1550 1870 3320
2020-02-24 21:30 5.56 1890 3630 (2019) 553 (2011) 1310 564 617 634 1080 1550 1870 3320
2020-02-24 20:30 5.50 1850 3630 (2019) 553 (2011) 1310 564 617 634 1080 1550 1870 3320
2020-02-24 19:30 5.45 1810 3630 (2019) 553 (2011) 1310 564 617 634 1080 1550 1870 3320
2020-02-24 18:30 5.42 1790 3630 (2019) 553 (2011) 1310 564 617 634 1080 1550 1870 3320
2020-02-24 17:30 5.38 1750 3630 (2019) 553 (2011) 1310 564 617 634 1080 1550 1870 3320
2020-02-24 16:30 5.35 1730 3630 (2019) 553 (2011) 1310 564 617 634 1080 1550 1870 3320
2020-02-24 15:30 5.32 1710 3630 (2019) 553 (2011) 1310 564 617 634 1080 1550 1870 3320
2020-02-24 14:30 5.29 1690 3630 (2019) 553 (2011) 1310 564 617 634 1080 1550 1870 3320
2020-02-24 13:30 5.28 1680 3630 (2019) 553 (2011) 1310 564 617 634 1080 1550 1870 3320
2020-02-24 12:30 5.25 1660 3630 (2019) 553 (2011) 1310 564 617 634 1080 1550 1870 3320
2020-02-24 11:30 5.23 1640 3630 (2019) 553 (2011) 1310 564 617 634 1080 1550 1870 3320
2020-02-24 10:30 5.21 1630 3630 (2019) 553 (2011) 1310 564 617 634 1080 1550 1870 3320
2020-02-24 09:30 5.20 1620 3630 (2019) 553 (2011) 1310 564 617 634 1080 1550 1870 3320
2020-02-24 08:30 5.18 1610 3630 (2019) 553 (2011) 1310 564 617 634 1080 1550 1870 3320
2020-02-24 07:30 5.16 1590 3630 (2019) 553 (2011) 1310 564 617 634 1080 1550 1870 3320
2020-02-24 06:30 5.13 1570 3630 (2019) 553 (2011) 1310 564 617 634 1080 1550 1870 3320
2020-02-24 05:30 5.10 1550 3630 (2019) 553 (2011) 1310 564 617 634 1080 1550 1870 3320
2020-02-24 04:30 5.08 1530 3630 (2019) 553 (2011) 1310 564 617 634 1080 1550 1870 3320
2020-02-24 03:30 5.07 1530 3630 (2019) 553 (2011) 1310 564 617 634 1080 1550 1870 3320
2020-02-24 02:30 5.04 1500 3630 (2019) 553 (2011) 1310 564 617 634 1080 1550 1870 3320
2020-02-24 01:30 5.02 1490 3630 (2019) 553 (2011) 1310 564 617 634 1080 1550 1870 3320
2020-02-24 00:30 5.02 1490 3630 (2019) 553 (2011) 1310 564 617 634 1080 1550 1870 3320
2020-02-23 23:30 5.02 1490 3710 (2019) 482 (2017) 1330 512 642 661 1040 1690 1860 3360
2020-02-23 22:30 5.02 1490 3710 (2019) 482 (2017) 1330 512 642 661 1040 1690 1860 3360
2020-02-23 21:30 5.02 1490 3710 (2019) 482 (2017) 1330 512 642 661 1040 1690 1860 3360
2020-02-23 20:30 5.01 1480 3710 (2019) 482 (2017) 1330 512 642 661 1040 1690 1860 3360
2020-02-23 19:30 5.02 1490 3710 (2019) 482 (2017) 1330 512 642 661 1040 1690 1860 3360
2020-02-23 18:30 5.01 1480 3710 (2019) 482 (2017) 1330 512 642 661 1040 1690 1860 3360
2020-02-23 17:30 5.02 1490 3710 (2019) 482 (2017) 1330 512 642 661 1040 1690 1860 3360
2020-02-23 16:30 5.02 1490 3710 (2019) 482 (2017) 1330 512 642 661 1040 1690 1860 3360
2020-02-23 15:30 5.03 1500 3710 (2019) 482 (2017) 1330 512 642 661 1040 1690 1860 3360
2020-02-23 14:30 5.03 1500 3710 (2019) 482 (2017) 1330 512 642 661 1040 1690 1860 3360
2020-02-23 13:30 5.03 1500 3710 (2019) 482 (2017) 1330 512 642 661 1040 1690 1860 3360
2020-02-23 12:30 5.03 1500 3710 (2019) 482 (2017) 1330 512 642 661 1040 1690 1860 3360
2020-02-23 11:30 5.03 1500 3710 (2019) 482 (2017) 1330 512 642 661 1040 1690 1860 3360
2020-02-23 10:30 5.04 1500 3710 (2019) 482 (2017) 1330 512 642 661 1040 1690 1860 3360
2020-02-23 09:30 5.04 1500 3710 (2019) 482 (2017) 1330 512 642 661 1040 1690 1860 3360
2020-02-23 08:30 5.04 1500 3710 (2019) 482 (2017) 1330 512 642 661 1040 1690 1860 3360
2020-02-23 07:30 5.04 1500 3710 (2019) 482 (2017) 1330 512 642 661 1040 1690 1860 3360
2020-02-23 06:30 5.04 1500 3710 (2019) 482 (2017) 1330 512 642 661 1040 1690 1860 3360
2020-02-23 05:30 5.04 1500 3710 (2019) 482 (2017) 1330 512 642 661 1040 1690 1860 3360
2020-02-23 04:30 5.05 1510 3710 (2019) 482 (2017) 1330 512 642 661 1040 1690 1860 3360
2020-02-23 03:30 5.05 1510 3710 (2019) 482 (2017) 1330 512 642 661 1040 1690 1860 3360
2020-02-23 02:30 5.05 1510 3710 (2019) 482 (2017) 1330 512 642 661 1040 1690 1860 3360
2020-02-23 01:30 5.05 1510 3710 (2019) 482 (2017) 1330 512 642 661 1040 1690 1860 3360
2020-02-23 00:30 5.06 1520 3710 (2019) 482 (2017) 1330 512 642 661 1040 1690 1860 3360
2020-02-22 23:30 5.06 1520 3710 (2019) 459 (2017) 1440 493 698 804 1080 2270 2410 3470
2020-02-22 22:30 5.06 1520 3710 (2019) 459 (2017) 1440 493 698 804 1080 2270 2410 3470
2020-02-22 21:30 5.07 1530 3710 (2019) 459 (2017) 1440 493 698 804 1080 2270 2410 3470
2020-02-22 20:30 5.07 1530 3710 (2019) 459 (2017) 1440 493 698 804 1080 2270 2410 3470
2020-02-22 19:30 5.07 1530 3710 (2019) 459 (2017) 1440 493 698 804 1080 2270 2410 3470
2020-02-22 18:30 5.07 1530 3710 (2019) 459 (2017) 1440 493 698 804 1080 2270 2410 3470
2020-02-22 17:30 5.08 1530 3710 (2019) 459 (2017) 1440 493 698 804 1080 2270 2410 3470
2020-02-22 16:30 5.08 1530 3710 (2019) 459 (2017) 1440 493 698 804 1080 2270 2410 3470
2020-02-22 15:30 5.09 1540 3710 (2019) 459 (2017) 1440 493 698 804 1080 2270 2410 3470
2020-02-22 14:30 5.09 1540 3710 (2019) 459 (2017) 1440 493 698 804 1080 2270 2410 3470
2020-02-22 13:30 5.09 1540 3710 (2019) 459 (2017) 1440 493 698 804 1080 2270 2410 3470
2020-02-22 12:30 5.10 1550 3710 (2019) 459 (2017) 1440 493 698 804 1080 2270 2410 3470
2020-02-22 11:30 5.10 1550 3710 (2019) 459 (2017) 1440 493 698 804 1080 2270 2410 3470
2020-02-22 10:30 5.10 1550 3710 (2019) 459 (2017) 1440 493 698 804 1080 2270 2410 3470
2020-02-22 09:30 5.11 1550 3710 (2019) 459 (2017) 1440 493 698 804 1080 2270 2410 3470
2020-02-22 08:30 5.11 1550 3710 (2019) 459 (2017) 1440 493 698 804 1080 2270 2410 3470
2020-02-22 07:30 5.11 1550 3710 (2019) 459 (2017) 1440 493 698 804 1080 2270 2410 3470
2020-02-22 06:30 5.12 1560 3710 (2019) 459 (2017) 1440 493 698 804 1080 2270 2410 3470
2020-02-22 05:30 5.13 1570 3710 (2019) 459 (2017) 1440 493 698 804 1080 2270 2410 3470
2020-02-22 04:30 5.13 1570 3710 (2019) 459 (2017) 1440 493 698 804 1080 2270 2410 3470
2020-02-22 03:30 5.14 1580 3710 (2019) 459 (2017) 1440 493 698 804 1080 2270 2410 3470
2020-02-22 02:30 5.15 1580 3710 (2019) 459 (2017) 1440 493 698 804 1080 2270 2410 3470
2020-02-22 01:30 5.16 1590 3710 (2019) 459 (2017) 1440 493 698 804 1080 2270 2410 3470
2020-02-22 00:30 5.17 1600 3710 (2019) 459 (2017) 1440 493 698 804 1080 2270 2410 3470
2020-02-21 23:30 5.19 1610 2540 (2009) 480 (2017) 1300 518 693 731 937 2160 2360 2530
2020-02-21 22:30 5.20 1620 2540 (2009) 480 (2017) 1300 518 693 731 937 2160 2360 2530
2020-02-21 21:30 5.22 1640 2540 (2009) 480 (2017) 1300 518 693 731 937 2160 2360 2530
2020-02-21 20:30 5.24 1650 2540 (2009) 480 (2017) 1300 518 693 731 937 2160 2360 2530
2020-02-21 19:30 5.27 1670 2540 (2009) 480 (2017) 1300 518 693 731 937 2160 2360 2530
2020-02-21 18:30 5.30 1690 2540 (2009) 480 (2017) 1300 518 693 731 937 2160 2360 2530
2020-02-21 17:30 5.34 1720 2540 (2009) 480 (2017) 1300 518 693 731 937 2160 2360 2530
2020-02-21 16:30 5.39 1760 2540 (2009) 480 (2017) 1300 518 693 731 937 2160 2360 2530
2020-02-21 15:30 5.44 1800 2540 (2009) 480 (2017) 1300 518 693 731 937 2160 2360 2530
2020-02-21 14:30 5.47 1820 2540 (2009) 480 (2017) 1300 518 693 731 937 2160 2360 2530
2020-02-21 13:30 5.49 1840 2540 (2009) 480 (2017) 1300 518 693 731 937 2160 2360 2530
2020-02-21 12:30 5.50 1850 2540 (2009) 480 (2017) 1300 518 693 731 937 2160 2360 2530
2020-02-21 11:30 5.50 1850 2540 (2009) 480 (2017) 1300 518 693 731 937 2160 2360 2530
2020-02-21 10:30 5.51 1850 2540 (2009) 480 (2017) 1300 518 693 731 937 2160 2360 2530
2020-02-21 09:30 5.51 1850 2540 (2009) 480 (2017) 1300 518 693 731 937 2160 2360 2530
2020-02-21 08:30 5.52 1860 2540 (2009) 480 (2017) 1300 518 693 731 937 2160 2360 2530
2020-02-21 07:30 5.53 1870 2540 (2009) 480 (2017) 1300 518 693 731 937 2160 2360 2530
2020-02-21 06:30 5.53 1870 2540 (2009) 480 (2017) 1300 518 693 731 937 2160 2360 2530
2020-02-21 05:30 5.54 1880 2540 (2009) 480 (2017) 1300 518 693 731 937 2160 2360 2530
2020-02-21 04:30 5.55 1890 2540 (2009) 480 (2017) 1300 518 693 731 937 2160 2360 2530
2020-02-21 03:30 5.56 1890 2540 (2009) 480 (2017) 1300 518 693 731 937 2160 2360 2530
2020-02-21 02:30 5.57 1900 2540 (2009) 480 (2017) 1300 518 693 731 937 2160 2360 2530
2020-02-21 01:30 5.58 1910 2540 (2009) 480 (2017) 1300 518 693 731 937 2160 2360 2530
2020-02-21 00:30 5.59 1920 2540 (2009) 480 (2017) 1300 518 693 731 937 2160 2360 2530
2020-02-20 23:30 5.61 1930 4220 (2019) 455 (2017) 1380 465 525 554 853 1360 2700 4090
2020-02-20 22:30 5.62 1940 4220 (2019) 455 (2017) 1380 465 525 554 853 1360 2700 4090
2020-02-20 21:30 5.64 1960 4220 (2019) 455 (2017) 1380 465 525 554 853 1360 2700 4090
2020-02-20 20:30 5.66 1970 4220 (2019) 455 (2017) 1380 465 525 554 853 1360 2700 4090
2020-02-20 19:30 5.68 1990 4220 (2019) 455 (2017) 1380 465 525 554 853 1360 2700 4090
2020-02-20 18:30 5.71 2010 4220 (2019) 455 (2017) 1380 465 525 554 853 1360 2700 4090
2020-02-20 17:30 5.74 2040 4220 (2019) 455 (2017) 1380 465 525 554 853 1360 2700 4090
2020-02-20 16:30 5.79 2080 4220 (2019) 455 (2017) 1380 465 525 554 853 1360 2700 4090
2020-02-20 15:30 5.84 2120 4220 (2019) 455 (2017) 1380 465 525 554 853 1360 2700 4090
2020-02-20 14:30 5.89 2160 4220 (2019) 455 (2017) 1380 465 525 554 853 1360 2700 4090
2020-02-20 13:30 5.92 2180 4220 (2019) 455 (2017) 1380 465 525 554 853 1360 2700 4090
2020-02-20 12:30 5.95 2210 4220 (2019) 455 (2017) 1380 465 525 554 853 1360 2700 4090
2020-02-20 11:30 5.95 2210 4220 (2019) 455 (2017) 1380 465 525 554 853 1360 2700 4090
2020-02-20 10:30 5.96 2210 4220 (2019) 455 (2017) 1380 465 525 554 853 1360 2700 4090
2020-02-20 09:30 5.97 2220 4220 (2019) 455 (2017) 1380 465 525 554 853 1360 2700 4090
2020-02-20 08:30 5.99 2240 4220 (2019) 455 (2017) 1380 465 525 554 853 1360 2700 4090
2020-02-20 07:30 6.00 2250 4220 (2019) 455 (2017) 1380 465 525 554 853 1360 2700 4090
2020-02-20 06:30 6.02 2260 4220 (2019) 455 (2017) 1380 465 525 554 853 1360 2700 4090
2020-02-20 05:30 6.03 2270 4220 (2019) 455 (2017) 1380 465 525 554 853 1360 2700 4090
2020-02-20 04:30 6.06 2300 4220 (2019) 455 (2017) 1380 465 525 554 853 1360 2700 4090
2020-02-20 03:30 6.08 2320 4220 (2019) 455 (2017) 1380 465 525 554 853 1360 2700 4090
2020-02-20 02:30 6.10 2330 4220 (2019) 455 (2017) 1380 465 525 554 853 1360 2700 4090
2020-02-20 01:30 6.13 2360 4220 (2019) 455 (2017) 1380 465 525 554 853 1360 2700 4090
2020-02-20 00:30 6.16 2380 4220 (2019) 455 (2017) 1380 465 525 554 853 1360 2700 4090
2020-02-19 23:30 6.21 2430 3790 (2019) 465 (2017) 1370 472 519 545 846 1360 2790 3780
2020-02-19 22:30 6.27 2480 3790 (2019) 465 (2017) 1370 472 519 545 846 1360 2790 3780
2020-02-19 21:30 6.34 2540 3790 (2019) 465 (2017) 1370 472 519 545 846 1360 2790 3780
2020-02-19 20:30 6.44 2630 3790 (2019) 465 (2017) 1370 472 519 545 846 1360 2790 3780
2020-02-19 19:30 6.57 2740 3790 (2019) 465 (2017) 1370 472 519 545 846 1360 2790 3780
2020-02-19 18:30 6.74 2890 3790 (2019) 465 (2017) 1370 472 519 545 846 1360 2790 3780
2020-02-19 17:30 6.91 3040 3790 (2019) 465 (2017) 1370 472 519 545 846 1360 2790 3780
2020-02-19 16:30 7.07 3170 3790 (2019) 465 (2017) 1370 472 519 545 846 1360 2790 3780
2020-02-19 15:30 7.18 3260 3790 (2019) 465 (2017) 1370 472 519 545 846 1360 2790 3780
2020-02-19 14:30 7.25 3330 3790 (2019) 465 (2017) 1370 472 519 545 846 1360 2790 3780
2020-02-19 13:30 7.28 3350 3790 (2019) 465 (2017) 1370 472 519 545 846 1360 2790 3780
2020-02-19 12:30 7.31 3380 3790 (2019) 465 (2017) 1370 472 519 545 846 1360 2790 3780
2020-02-19 11:30 7.31 3380 3790 (2019) 465 (2017) 1370 472 519 545 846 1360 2790 3780
2020-02-19 10:30 7.31 3380 3790 (2019) 465 (2017) 1370 472 519 545 846 1360 2790 3780
2020-02-19 09:30 7.31 3380 3790 (2019) 465 (2017) 1370 472 519 545 846 1360 2790 3780
2020-02-19 08:30 7.32 3390 3790 (2019) 465 (2017) 1370 472 519 545 846 1360 2790 3780
2020-02-19 07:30 7.31 3380 3790 (2019) 465 (2017) 1370 472 519 545 846 1360 2790 3780
2020-02-19 06:30 7.34 3400 3790 (2019) 465 (2017) 1370 472 519 545 846 1360 2790 3780
2020-02-19 05:30 7.34 3400 3790 (2019) 465 (2017) 1370 472 519 545 846 1360 2790 3780
2020-02-19 04:30 7.34 3400 3790 (2019) 465 (2017) 1370 472 519 545 846 1360 2790 3780
2020-02-19 03:30 7.34 3400 3790 (2019) 465 (2017) 1370 472 519 545 846 1360 2790 3780
2020-02-19 02:30 7.35 3410 3790 (2019) 465 (2017) 1370 472 519 545 846 1360 2790 3780
2020-02-19 01:30 7.36 3420 3790 (2019) 465 (2017) 1370 472 519 545 846 1360 2790 3780
2020-02-19 00:30 7.36 3420 3790 (2019) 465 (2017) 1370 472 519 545 846 1360 2790 3780
2020-02-18 23:30 7.37 3430 3820 (2009) 467 (2017) 1390 472 498 504 837 1350 2830 3820
2020-02-18 22:30 7.38 3440 3820 (2009) 467 (2017) 1390 472 498 504 837 1350 2830 3820
2020-02-18 21:30 7.39 3450 3820 (2009) 467 (2017) 1390 472 498 504 837 1350 2830 3820
2020-02-18 20:30 7.38 3440 3820 (2009) 467 (2017) 1390 472 498 504 837 1350 2830 3820
2020-02-18 19:30 7.39 3450 3820 (2009) 467 (2017) 1390 472 498 504 837 1350 2830 3820
2020-02-18 18:30 7.40 3460 3820 (2009) 467 (2017) 1390 472 498 504 837 1350 2830 3820
2020-02-18 17:30 7.42 3470 3820 (2009) 467 (2017) 1390 472 498 504 837 1350 2830 3820
2020-02-18 16:30 7.42 3470 3820 (2009) 467 (2017) 1390 472 498 504 837 1350 2830 3820
2020-02-18 15:30 7.44 3490 3820 (2009) 467 (2017) 1390 472 498 504 837 1350 2830 3820
2020-02-18 14:30 7.44 3490 3820 (2009) 467 (2017) 1390 472 498 504 837 1350 2830 3820
2020-02-18 13:30 7.45 3500 3820 (2009) 467 (2017) 1390 472 498 504 837 1350 2830 3820
2020-02-18 12:30 7.45 3500 3820 (2009) 467 (2017) 1390 472 498 504 837 1350 2830 3820
2020-02-18 11:30 7.47 3520 3820 (2009) 467 (2017) 1390 472 498 504 837 1350 2830 3820
2020-02-18 10:30 7.48 3530 3820 (2009) 467 (2017) 1390 472 498 504 837 1350 2830 3820
2020-02-18 09:30 7.47 3520 3820 (2009) 467 (2017) 1390 472 498 504 837 1350 2830 3820
2020-02-18 08:30 7.48 3530 3820 (2009) 467 (2017) 1390 472 498 504 837 1350 2830 3820
2020-02-18 07:30 7.49 3530 3820 (2009) 467 (2017) 1390 472 498 504 837 1350 2830 3820
2020-02-18 06:30 7.48 3530 3820 (2009) 467 (2017) 1390 472 498 504 837 1350 2830 3820
2020-02-18 05:30 7.49 3530 3820 (2009) 467 (2017) 1390 472 498 504 837 1350 2830 3820
2020-02-18 04:30 7.48 3530 3820 (2009) 467 (2017) 1390 472 498 504 837 1350 2830 3820
2020-02-18 03:30 7.48 3530 3820 (2009) 467 (2017) 1390 472 498 504 837 1350 2830 3820
2020-02-18 02:30 7.49 3530 3820 (2009) 467 (2017) 1390 472 498 504 837 1350 2830 3820
2020-02-18 01:30 7.49 3530 3820 (2009) 467 (2017) 1390 472 498 504 837 1350 2830 3820
2020-02-18 00:30 7.47 3520 3820 (2009) 467 (2017) 1390 472 498 504 837 1350 2830 3820

A total of 183 rows are displayed for years 2009 through 2019.